Time;durP1;ratioP1;P1;durP2;ratioP2;P2;SDS_P1;SDS_P2;PMS_P1;PMS_P2;Temp;Humidity;BMP_temperature;BMP_pressure;BME280_temperature;BME280_humidity;BME280_pressure;Samples;Min_cycle;Max_cycle;Signal;HPM_P1;HPM_P2
2023/06/23 00:01:36;;;;;;;;;38.33;34.00;;;;;23.49;100.00;99524.66;6284392;20;3585780;-57
2023/06/23 00:04:04;;;;;;;;;32.00;31.00;;;;;23.41;100.00;99523.69;6285751;20;3605509;-57
2023/06/23 00:06:33;;;;;;;;;37.33;32.33;;;;;23.40;100.00;99519.22;6281447;20;3590920;-56
2023/06/23 00:09:04;;;;;;;;;36.33;33.00;;;;;23.50;100.00;99509.91;6282451;20;3586790;-56
2023/06/23 00:11:33;;;;;;;;;44.33;36.00;;;;;23.70;98.84;99516.63;6283159;20;3577348;-56
2023/06/23 00:14:01;;;;;;;;;40.67;34.00;;;;;23.52;99.89;99505.09;6283370;20;3600309;-54
2023/06/23 00:16:30;;;;;;;;;36.00;32.00;;;;;23.45;100.00;99503.06;6282142;20;3584695;-56
2023/06/23 00:19:00;;;;;;;;;37.00;33.67;;;;;23.39;100.00;99514.78;6283950;20;3595094;-56
2023/06/23 00:21:28;;;;;;;;;39.33;34.00;;;;;23.41;99.96;99495.44;6284806;20;3603413;-57
2023/06/23 00:23:57;;;;;;;;;43.25;34.00;;;;;23.54;100.00;99489.31;6283923;20;3613916;-58
2023/06/23 00:26:26;;;;;;;;;37.67;33.33;;;;;23.36;100.00;99485.00;6314584;20;3597304;-56
2023/06/23 00:28:54;;;;;;;;;37.33;33.67;;;;;23.36;100.00;99481.41;6282141;20;3580612;-56
2023/06/23 00:31:22;;;;;;;;;38.00;34.00;;;;;23.26;100.00;99487.13;6282536;20;3587907;-56
2023/06/23 00:33:50;;;;;;;;;39.00;34.00;;;;;23.38;100.00;99477.47;6282334;20;3596127;-58
2023/06/23 00:36:18;;;;;;;;;44.33;35.33;;;;;23.29;100.00;99477.69;6281653;20;3604404;-54
2023/06/23 00:38:47;;;;;;;;;39.00;32.67;;;;;23.33;100.00;99477.16;6280226;20;3609644;-55
2023/06/23 00:41:15;;;;;;;;;43.00;35.67;;;;;23.24;100.00;99486.44;6283905;20;3584690;-56
2023/06/23 00:43:49;;;;;;;;;41.00;35.00;;;;;23.13;100.00;99492.34;6285362;20;3603976;-55
2023/06/23 00:46:21;;;;;;;;;40.67;35.33;;;;;23.19;100.00;99495.19;6281846;20;3596277;-57
2023/06/23 00:48:49;;;;;;;;;39.33;33.33;;;;;23.25;100.00;99501.88;6281781;20;3609632;-52
2023/06/23 00:51:17;;;;;;;;;37.67;34.00;;;;;23.19;100.00;99503.41;6283002;20;3600281;-57
2023/06/23 00:53:49;;;;;;;;;42.00;35.33;;;;;23.29;100.00;99499.59;6281360;20;3580499;-55
2023/06/23 00:56:21;;;;;;;;;35.00;32.00;;;;;23.32;100.00;99497.34;6279870;20;3586718;-52
2023/06/23 00:58:50;;;;;;;;;44.67;35.00;;;;;23.45;99.13;99485.78;6284785;20;3595073;-52
2023/06/23 01:01:18;;;;;;;;;39.33;35.00;;;;;23.26;99.99;99484.38;6282617;20;3574447;-52
2023/06/23 01:03:47;;;;;;;;;38.00;34.33;;;;;23.13;100.00;99486.88;6282177;20;3602462;-52
2023/06/23 01:07:03;;;;;;;;;38.00;34.00;;;;;23.06;100.00;99485.88;6282627;20;3604446;-52
2023/06/23 01:09:52;;;;;;;;;44.33;37.33;;;;;23.05;100.00;99490.50;6281357;20;3586748;-53
2023/06/23 01:12:39;;;;;;;;;40.67;35.00;;;;;22.80;100.00;99481.50;6279956;20;3610748;-52
2023/06/23 01:15:26;;;;;;;;;39.67;35.00;;;;;22.86;100.00;99486.28;6271932;20;3604309;-57
2023/06/23 01:18:34;;;;;;;;;39.33;34.00;;;;;22.67;100.00;99481.22;6280678;20;3605486;-53
2023/06/23 01:21:09;;;;;;;;;37.67;34.00;;;;;22.82;100.00;99479.47;6277931;20;3599212;-57
2023/06/23 01:24:24;;;;;;;;;41.00;34.00;;;;;22.58;100.00;99484.00;6278069;20;3605499;-52
2023/06/23 01:27:29;;;;;;;;;44.00;34.33;;;;;22.40;100.00;99480.66;6285362;20;3623155;-52
2023/06/23 01:30:02;;;;;;;;;42.00;34.00;;;;;22.41;100.00;99479.63;6285334;20;3602461;-58
2023/06/23 01:32:49;;;;;;;;;39.33;35.00;;;;;22.50;100.00;99475.81;6285145;20;3607524;-55
2023/06/23 01:35:28;;;;;;;;;42.67;37.00;;;;;22.44;100.00;99473.81;6283634;20;3589883;-52
2023/06/23 01:38:09;;;;;;;;;41.00;35.67;;;;;22.48;100.00;99472.41;6286837;20;3599201;-54
2023/06/23 01:40:41;;;;;;;;;37.67;34.00;;;;;22.55;100.00;99467.94;6284301;20;3578405;-50
2023/06/23 01:43:13;;;;;;;;;41.00;35.00;;;;;22.55;100.00;99467.09;6283973;20;3594090;-53
2023/06/23 01:45:42;;;;;;;;;40.00;35.33;;;;;22.55;100.00;99467.94;6282736;20;3597220;-49
2023/06/23 01:48:12;;;;;;;;;39.00;35.00;;;;;22.40;100.00;99469.69;6285073;20;3603413;-52
2023/06/23 01:50:44;;;;;;;;;43.75;34.50;;;;;22.37;100.00;99470.06;6282525;20;3622165;-53
2023/06/23 01:53:12;;;;;;;;;40.67;35.00;;;;;22.28;100.00;99476.59;6312704;20;3578363;-53
2023/06/23 01:55:42;;;;;;;;;39.67;35.00;;;;;22.41;100.00;99481.50;6284681;20;3601281;-53
2023/06/23 01:58:13;;;;;;;;;36.00;32.00;;;;;22.33;100.00;99485.13;6282234;20;3597186;-52
2023/06/23 02:00:42;;;;;;;;;43.33;36.67;;;;;22.28;100.00;99487.53;6284097;20;3603373;-51
2023/06/23 02:03:12;;;;;;;;;41.33;36.33;;;;;22.39;100.00;99489.91;6283976;20;3582667;-51
2023/06/23 02:05:41;;;;;;;;;43.67;35.33;;;;;22.36;100.00;99482.03;6286689;20;3576341;-53
2023/06/23 02:08:09;;;;;;;;;45.33;38.33;;;;;22.14;100.00;99476.25;6290962;20;3592487;-54
2023/06/23 02:10:38;;;;;;;;;45.00;38.00;;;;;22.00;100.00;99482.41;6285725;20;3578565;-51
2023/06/23 02:13:08;;;;;;;;;40.67;34.67;;;;;21.94;100.00;99476.81;6282012;20;3574439;-51
2023/06/23 02:15:39;;;;;;;;;43.33;36.67;;;;;21.84;100.00;99474.25;6276960;20;3603535;-51
2023/06/23 02:18:10;;;;;;;;;41.25;34.00;;;;;21.82;100.00;99481.75;6316795;20;3613929;-51
2023/06/23 02:20:40;;;;;;;;;42.00;35.33;;;;;21.86;100.00;99488.59;6317205;20;3579431;-54
2023/06/23 02:23:09;;;;;;;;;43.00;37.33;;;;;21.94;100.00;99485.84;6286820;20;3591010;-52
2023/06/23 02:25:39;;;;;;;;;44.00;37.00;;;;;21.70;100.00;99489.47;6280972;20;3600336;-49
2023/06/23 02:28:11;;;;;;;;;37.33;33.67;;;;;21.74;100.00;99490.81;6289412;20;3573220;-48
2023/06/23 02:30:40;;;;;;;;;43.00;36.00;;;;;22.14;100.00;99498.13;6284701;20;3598802;-52
2023/06/23 02:33:09;;;;;;;;;45.00;39.00;;;;;21.96;100.00;99508.41;6286707;20;3583589;-48
2023/06/23 02:35:37;;;;;;;;;44.33;36.33;;;;;21.94;100.00;99507.72;6287362;20;3596143;-57
2023/06/23 02:38:12;;;;;;;;;44.00;38.00;;;;;21.78;100.00;99508.59;6283550;20;3597267;-54
2023/06/23 02:40:42;;;;;;;;;41.67;36.67;;;;;21.50;100.00;99505.31;6283527;20;3594028;-56
2023/06/23 02:43:17;;;;;;;;;43.67;36.00;;;;;21.62;100.00;99509.44;6283993;20;3585711;-56
2023/06/23 02:45:55;;;;;;;;;43.00;36.33;;;;;21.82;100.00;99514.56;6282604;20;3595106;-58
2023/06/23 02:48:30;;;;;;;;;44.00;37.00;;;;;21.83;100.00;99502.63;6286173;20;3581541;-58
2023/06/23 02:51:01;;;;;;;;;40.33;35.67;;;;;21.72;100.00;99500.19;6283145;20;3590877;-55
2023/06/23 02:53:38;;;;;;;;;43.00;36.67;;;;;21.69;100.00;99502.25;6284747;20;2835783;-57
2023/06/23 02:56:19;;;;;;;;;44.33;38.33;;;;;21.65;100.00;99503.63;6314873;20;3586753;-57
2023/06/23 02:58:50;;;;;;;;;46.50;38.50;;;;;21.63;100.00;99505.66;6280900;20;2849210;-52
2023/06/23 03:01:22;;;;;;;;;40.00;35.67;;;;;21.63;100.00;99494.75;6283073;20;3579452;-54
2023/06/23 03:03:51;;;;;;;;;45.33;38.00;;;;;21.51;100.00;99495.25;6280747;20;3616912;-58
2023/06/23 03:06:20;;;;;;;;;48.00;40.67;;;;;21.45;100.00;99494.03;6287867;20;3601294;-55
2023/06/23 03:08:50;;;;;;;;;45.33;37.67;;;;;21.38;100.00;99487.53;6279740;20;3601454;-57
2023/06/23 03:11:20;;;;;;;;;46.67;38.67;;;;;21.36;100.00;99482.22;6317988;20;3598172;-57
2023/06/23 03:13:49;;;;;;;;;43.67;37.00;;;;;21.40;100.00;99477.31;6281399;20;3582558;-52
2023/06/23 03:16:32;;;;;;;;;44.00;37.00;;;;;21.57;100.00;99484.50;6286849;20;3590947;-54
2023/06/23 03:19:25;;;;;;;;;43.67;36.67;;;;;21.54;100.00;99484.84;6282144;20;3589917;-52
2023/06/23 03:22:14;;;;;;;;;46.00;37.33;;;;;21.59;100.00;99482.47;6278800;20;3589812;-53
2023/06/23 03:24:45;;;;;;;;;45.00;39.00;;;;;21.83;100.00;99487.06;6285705;20;2668019;-54
2023/06/23 03:27:15;;;;;;;;;42.33;36.00;;;;;21.88;100.00;99479.19;6283514;20;3575261;-55
2023/06/23 03:30:12;;;;;;;;;44.67;37.00;;;;;21.90;100.00;99484.47;6278192;20;3567982;-56
2023/06/23 03:32:47;;;;;;;;;44.00;37.00;;;;;21.94;100.00;99485.00;6280367;20;3603431;-52
2023/06/23 03:35:27;;;;;;;;;42.33;36.00;;;;;21.82;100.00;99498.16;6282871;20;3588879;-55
2023/06/23 03:37:59;;;;;;;;;41.67;35.33;;;;;21.97;100.00;99490.13;6286846;20;3581528;-57
2023/06/23 03:40:35;;;;;;;;;47.00;38.67;;;;;21.83;100.00;99495.25;6285466;20;3595044;-54
2023/06/23 03:43:36;;;;;;;;;46.33;38.33;;;;;22.06;100.00;99497.28;6280911;20;3601291;-57
2023/06/23 03:46:14;;;;;;;;;45.67;39.00;;;;;22.18;100.00;99492.31;6281985;20;3596518;-56
2023/06/23 03:48:45;;;;;;;;;44.00;35.67;;;;;22.24;100.00;99491.63;6281463;20;3596110;-58
2023/06/23 03:51:16;;;;;;;;;45.33;38.00;;;;;22.25;100.00;99494.22;6284235;20;3607656;-57
2023/06/23 03:53:50;;;;;;;;;43.33;37.67;;;;;22.19;100.00;99494.03;6281061;20;3587809;-54
2023/06/23 03:56:22;;;;;;;;;43.33;37.00;;;;;22.11;100.00;99487.53;6282759;20;3594031;-56
2023/06/23 03:58:51;;;;;;;;;49.33;39.67;;;;;22.14;100.00;99480.84;6312886;20;3601288;-56
2023/06/23 04:01:22;;;;;;;;;47.00;39.00;;;;;22.17;100.00;99485.13;6274919;20;3583774;-56
2023/06/23 04:03:52;;;;;;;;;44.33;38.00;;;;;22.11;100.00;99487.53;6283438;20;3570141;-54
2023/06/23 04:06:25;;;;;;;;;49.67;41.33;;;;;22.24;100.00;99503.44;6278236;20;3602365;-57
2023/06/23 04:08:55;;;;;;;;;46.00;38.67;;;;;22.41;100.00;99511.59;6282125;20;3574184;-55
2023/06/23 04:11:26;;;;;;;;;46.33;37.33;;;;;22.38;100.00;99521.03;6282570;20;3574207;-55
2023/06/23 04:13:59;;;;;;;;;46.00;39.00;;;;;22.35;100.00;99526.81;6278181;20;3572251;-55
2023/06/23 04:16:28;;;;;;;;;45.33;36.67;;;;;22.63;100.00;99527.28;6281867;20;3576320;-54
2023/06/23 04:18:59;;;;;;;;;45.67;38.00;;;;;22.79;100.00;99534.56;6282094;20;3584727;-56
2023/06/23 04:21:30;;;;;;;;;46.67;39.00;;;;;22.87;100.00;99537.28;6281134;20;3587757;-57
2023/06/23 04:24:03;;;;;;;;;45.00;38.00;;;;;23.09;100.00;99540.28;6283396;20;3571095;-58
2023/06/23 04:26:37;;;;;;;;;41.00;35.33;;;;;23.14;100.00;99543.34;6282418;20;3581528;-56
2023/06/23 04:29:08;;;;;;;;;45.67;37.00;;;;;23.18;100.00;99541.97;6277762;20;3581015;-57
2023/06/23 04:31:38;;;;;;;;;45.67;36.33;;;;;23.06;100.00;99536.00;6284783;20;3615925;-56
2023/06/23 04:34:06;;;;;;;;;41.67;34.33;;;;;23.23;100.00;99537.66;6281278;20;3601769;-57
2023/06/23 04:37:05;;;;;;;;;37.00;33.00;;;;;23.42;100.00;99541.81;6280863;20;3596120;-54
2023/06/23 04:39:48;;;;;;;;;37.00;33.33;;;;;23.53;99.72;99540.53;6281042;20;3589975;-58
2023/06/23 04:42:25;;;;;;;;;44.00;37.00;;;;;23.59;99.95;99542.56;6281698;20;3600328;-57
2023/06/23 04:44:58;;;;;;;;;42.67;37.00;;;;;23.58;100.00;99534.50;6280977;20;3581037;-58
2023/06/23 04:47:34;;;;;;;;;39.00;34.00;;;;;23.74;99.77;99534.41;6282850;20;3598184;-56
2023/06/23 04:50:09;;;;;;;;;38.67;32.00;;;;;23.94;98.86;99534.78;6278925;20;3611849;-57
2023/06/23 04:52:45;;;;;;;;;40.00;35.00;;;;;24.30;98.58;99534.09;6279558;20;3604458;-56
2023/06/23 04:55:17;;;;;;;;;35.75;32.50;;;;;24.31;95.20;99550.38;6284464;20;3608729;-56
2023/06/23 04:57:49;;;;;;;;;32.50;31.25;;;;;24.14;96.62;99545.22;6315644;20;3598343;-55
2023/06/23 05:00:22;;;;;;;;;35.00;32.00;;;;;24.19;97.47;99535.41;6314569;20;3593128;-56
2023/06/23 05:02:53;;;;;;;;;34.67;32.00;;;;;24.26;97.35;99539.13;6287095;20;3607558;-58
2023/06/23 05:05:26;;;;;;;;;38.00;34.00;;;;;24.34;97.57;99523.63;6286733;20;3571134;-55
2023/06/23 05:07:57;;;;;;;;;44.00;35.33;;;;;24.56;94.92;99530.94;6286062;20;3598590;-57
2023/06/23 05:10:28;;;;;;;;;40.00;35.67;;;;;24.87;94.31;99529.91;6288664;20;3579497;-57
2023/06/23 05:13:01;;;;;;;;;36.33;33.67;;;;;25.11;92.48;99537.81;6288054;20;3600264;-57
2023/06/23 05:15:29;;;;;;;;;37.00;31.00;;;;;24.88;92.58;99539.81;6282225;20;3599221;-55
2023/06/23 05:18:00;;;;;;;;;41.33;34.67;;;;;25.02;92.78;99538.97;6278237;20;3579513;-54
2023/06/23 05:20:30;;;;;;;;;39.00;32.67;;;;;25.27;91.82;99536.75;6290371;20;3606535;-55
2023/06/23 05:23:04;;;;;;;;;37.67;33.33;;;;;25.39;91.60;99537.97;6290896;20;3584650;-57
2023/06/23 05:25:35;;;;;;;;;37.33;33.67;;;;;25.37;90.39;99533.72;6289538;20;3589867;-57
2023/06/23 05:28:04;;;;;;;;;36.00;32.00;;;;;25.59;89.79;99518.97;6283483;20;1895119;-56
2023/06/23 05:30:35;;;;;;;;;36.50;32.00;;;;;25.81;89.20;99517.03;6317440;20;3598218;-57
2023/06/23 05:33:07;;;;;;;;;40.00;34.00;;;;;25.49;90.27;99518.44;6318047;20;1893085;-56
2023/06/23 05:35:37;;;;;;;;;28.33;28.33;;;;;25.45;88.88;99519.84;6311927;20;3580550;-56
2023/06/23 05:38:07;;;;;;;;;32.33;29.67;;;;;25.46;89.88;99513.31;6285654;20;3602457;-58
2023/06/23 05:40:35;;;;;;;;;33.00;29.00;;;;;25.38;88.78;99513.41;6288839;20;3586739;-57
2023/06/23 05:43:04;;;;;;;;;31.25;30.25;;;;;25.63;88.43;99520.25;6287922;20;3597120;-53
2023/06/23 05:45:35;;;;;;;;;33.33;30.00;;;;;25.92;87.36;99523.94;6318162;20;3595072;-56
2023/06/23 05:48:47;;;;;;;;;38.25;32.00;;;;;25.98;86.77;99525.88;6291413;20;3618076;-57
2023/06/23 05:51:32;;;;;;;;;29.33;28.33;;;;;25.91;87.41;99516.75;6317820;20;3582542;-53
2023/06/23 05:54:08;;;;;;;;;28.00;28.00;;;;;25.75;87.96;99522.47;6286729;20;3583584;-53
2023/06/23 05:56:49;;;;;;;;;35.00;32.00;;;;;26.07;86.27;99521.13;6281808;20;3600380;-53
2023/06/23 05:59:24;;;;;;;;;36.33;32.00;;;;;26.47;84.67;99525.00;6277972;20;3607732;-55
2023/06/23 06:01:58;;;;;;;;;36.00;30.33;;;;;26.24;85.39;99527.16;6313384;20;1902404;-58
2023/06/23 06:04:30;;;;;;;;;29.00;29.00;;;;;26.75;83.95;99517.78;6306182;20;3586768;-57
2023/06/23 06:07:02;;;;;;;;;34.00;31.50;;;;;26.72;84.26;99521.78;6316397;20;3606516;-56
2023/06/23 06:09:34;;;;;;;;;33.86;29.00;;;;;26.87;84.13;99522.50;6329762;20;3579455;-58
2023/06/23 06:12:18;;;;;;;;;30.67;29.67;;;;;26.74;82.76;99514.19;6280537;20;3592048;-54
2023/06/23 06:14:48;;;;;;;;;29.67;28.33;;;;;26.77;83.85;99521.19;6280226;20;3575829;-55
2023/06/23 06:17:18;;;;;;;;;35.00;29.25;;;;;27.08;81.62;99517.94;6284060;20;3602514;-49
2023/06/23 06:19:49;;;;;;;;;28.33;27.33;;;;;27.35;81.67;99518.91;6307403;20;3603524;-53
2023/06/23 06:22:19;;;;;;;;;32.67;28.67;;;;;27.15;82.10;99518.84;6280194;20;3590219;-55
2023/06/23 06:24:51;;;;;;;;;35.67;32.00;;;;;27.43;80.49;99527.00;6280900;20;3591989;-53
2023/06/23 06:27:22;;;;;;;;;38.00;33.33;;;;;27.50;79.62;99518.75;6279546;20;3613808;-57
2023/06/23 06:29:55;;;;;;;;;31.25;30.50;;;;;27.58;78.50;99511.13;6307339;20;3594156;-56
2023/06/23 06:32:29;;;;;;;;;30.33;29.00;;;;;27.53;79.61;99505.38;6307653;20;3587795;-57
2023/06/23 06:35:05;;;;;;;;;31.33;30.33;;;;;28.28;78.58;99501.63;6309044;20;3599260;-57
2023/06/23 06:37:47;;;;;;;;;31.00;29.50;;;;;28.60;75.87;99514.59;6283017;20;3600267;-55
2023/06/23 06:40:24;;;;;;;;;32.71;31.43;;;;;27.99;76.73;99499.13;6329976;20;3592022;-54
2023/06/23 06:42:52;;;;;;;;;31.33;30.33;;;;;28.45;75.68;99505.69;6282499;20;3597158;-54
2023/06/23 06:45:21;;;;;;;;;33.33;31.00;;;;;28.39;76.92;99501.84;6282081;20;3594134;-56
2023/06/23 06:47:53;;;;;;;;;31.00;29.00;;;;;28.94;75.83;99512.56;6279277;20;3594188;-55
2023/06/23 06:50:23;;;;;;;;;33.00;29.67;;;;;29.25;73.94;99509.06;6311151;20;3593354;-58
2023/06/23 06:52:52;;;;;;;;;27.00;27.00;;;;;29.10;73.09;99501.06;6281487;20;3585674;-52
2023/06/23 06:55:22;;;;;;;;;30.75;29.00;;;;;28.93;74.15;99501.72;6279217;20;3594098;-55
2023/06/23 06:57:51;;;;;;;;;34.00;29.50;;;;;29.38;72.47;99502.59;6311017;20;3474426;-51
2023/06/23 07:00:22;;;;;;;;;33.33;30.67;;;;;30.03;71.37;99510.69;6317286;20;3597131;-55
2023/06/23 07:02:53;;;;;;;;;29.33;29.00;;;;;30.09;69.11;99507.00;6282108;20;3583712;-56
2023/06/23 07:05:22;;;;;;;;;29.67;29.00;;;;;30.38;67.95;99502.72;6309014;20;3566017;-51
2023/06/23 07:07:51;;;;;;;;;28.33;28.00;;;;;29.52;70.09;99498.69;6311811;20;3577496;-55
2023/06/23 07:10:22;;;;;;;;;21.86;21.57;;;;;29.66;69.40;99493.09;6332693;20;3579456;-54
2023/06/23 07:12:51;;;;;;;;;27.25;27.25;;;;;30.45;68.35;99485.22;6284325;20;3587833;-55
2023/06/23 07:15:19;;;;;;;;;32.00;29.50;;;;;30.86;69.08;99495.66;6314896;20;1891022;-55
2023/06/23 07:17:50;;;;;;;;;32.71;28.57;;;;;30.51;67.60;99482.34;6332259;20;3592195;-53
2023/06/23 07:20:19;;;;;;;;;29.25;28.00;;;;;31.03;66.84;99482.84;6281062;20;3594149;-54
2023/06/23 07:22:50;;;;;;;;;24.43;24.43;;;;;31.10;65.52;99477.22;6330982;20;3594026;-57
2023/06/23 07:25:21;;;;;;;;;27.43;24.86;;;;;31.27;65.10;99472.69;6298553;20;3586712;-58
2023/06/23 07:27:52;;;;;;;;;29.57;28.86;;;;;30.84;66.67;99479.25;6297593;20;3589960;-56
2023/06/23 07:30:24;;;;;;;;;28.38;24.50;;;;;31.87;62.55;99473.75;6294938;20;3606488;-53
2023/06/23 07:32:55;;;;;;;;;24.86;23.71;;;;;30.84;63.39;99482.03;6327321;20;3586716;-55
2023/06/23 07:35:24;;;;;;;;;24.33;24.33;;;;;31.16;62.92;99481.81;6280313;20;3595134;-56
2023/06/23 07:37:55;;;;;;;;;25.86;25.29;;;;;31.00;65.54;99485.25;6293471;20;3589868;-57
2023/06/23 07:40:23;;;;;;;;;27.67;23.33;;;;;31.36;63.54;99480.69;6280203;20;3594022;-62
2023/06/23 07:42:54;;;;;;;;;28.86;26.14;;;;;31.42;63.34;99485.34;6300318;20;3595059;-57
2023/06/23 07:45:26;;;;;;;;;31.00;28.57;;;;;31.85;62.44;99484.25;6295749;20;3583589;-56
2023/06/23 07:47:55;;;;;;;;;28.50;27.00;;;;;31.88;61.67;99483.78;6282039;20;3582683;-59
2023/06/23 07:50:26;;;;;;;;;28.00;26.57;;;;;31.53;62.83;99481.75;6331393;20;3582574;-59
2023/06/23 07:52:55;;;;;;;;;33.00;30.75;;;;;32.16;60.28;99490.63;6282789;20;3601520;-57
2023/06/23 07:55:25;;;;;;;;;30.75;29.25;;;;;31.87;62.34;99484.88;6313587;20;3580530;-56
2023/06/23 07:57:56;;;;;;;;;29.86;28.29;;;;;32.18;61.81;99480.09;6330334;20;3588781;-57
2023/06/23 08:00:24;;;;;;;;;34.00;31.00;;;;;32.48;60.33;99475.28;6270848;20;3590896;-53
2023/06/23 08:02:53;;;;;;;;;33.00;30.67;;;;;32.30;61.86;99480.94;6310765;20;3598867;-54
2023/06/23 08:05:23;;;;;;;;;28.33;28.33;;;;;31.82;60.04;99474.47;6278827;20;3590048;-58
2023/06/23 08:07:54;;;;;;;;;30.14;28.57;;;;;31.84;59.79;99477.88;6296682;20;3577394;-59
2023/06/23 08:10:23;;;;;;;;;32.00;29.00;;;;;32.39;58.74;99473.06;6279188;20;3600327;-55
2023/06/23 08:12:54;;;;;;;;;35.14;30.71;;;;;32.55;58.18;99472.41;6329393;20;3603405;-55
2023/06/23 08:15:25;;;;;;;;;32.71;30.29;;;;;32.46;58.42;99468.25;6292429;20;3604428;-58
2023/06/23 08:17:54;;;;;;;;;31.50;29.50;;;;;31.57;59.80;99466.34;6275319;20;3589839;-53
2023/06/23 08:20:24;;;;;;;;;27.33;27.33;;;;;32.12;59.08;99468.88;6308580;20;3587756;-52
2023/06/23 08:22:53;;;;;;;;;33.00;30.00;;;;;32.52;57.41;99461.78;6308543;20;3597142;-57
2023/06/23 08:25:25;;;;;;;;;32.50;30.50;;;;;32.71;57.81;99470.81;6279090;20;3589842;-55
2023/06/23 08:27:54;;;;;;;;;32.33;30.67;;;;;32.60;58.78;99464.16;6307858;20;3605593;-55
2023/06/23 08:30:30;;;;;;;;;29.00;29.00;;;;;32.51;56.15;99460.91;6279283;20;3584629;-54
2023/06/23 08:33:00;;;;;;;;;33.67;31.67;;;;;32.53;58.03;99464.28;6305730;20;3601363;-56
2023/06/23 08:36:17;;;;;;;;;28.25;26.25;;;;;32.89;56.62;99467.00;6273192;20;3592022;-58
2023/06/23 08:38:51;;;;;;;;;33.33;30.67;;;;;32.68;56.98;99471.28;6301106;20;3600441;-57
2023/06/23 08:41:21;;;;;;;;;29.25;26.50;;;;;33.42;57.00;99469.50;6266923;20;3588926;-53
2023/06/23 08:43:53;;;;;;;;;32.67;29.33;;;;;32.66;58.21;99463.19;6307271;20;3586730;-59
2023/06/23 08:46:42;;;;;;;;;27.14;26.00;;;;;32.57;57.68;99459.06;6285009;20;3573262;-58
2023/06/23 08:49:38;;;;;;;;;27.14;27.00;;;;;33.30;55.87;99467.84;6296725;20;3592026;-53
2023/06/23 08:52:09;;;;;;;;;35.50;32.00;;;;;33.05;55.59;99465.44;6279936;20;3597615;-54
2023/06/23 08:54:39;;;;;;;;;34.67;31.33;;;;;32.45;57.69;99461.00;6310041;20;3605614;-59
2023/06/23 08:57:08;;;;;;;;;27.75;27.75;;;;;32.86;55.51;99461.91;6276259;20;3581505;-58
2023/06/23 08:59:40;;;;;;;;;30.14;28.43;;;;;33.13;55.56;99468.66;6323571;20;3589889;-57
2023/06/23 09:02:08;;;;;;;;;34.67;31.33;;;;;33.55;55.59;99473.94;6277033;20;1893045;-59
2023/06/23 09:04:36;;;;;;;;;26.67;26.67;;;;;33.39;54.58;99481.13;6304053;20;3580468;-58
2023/06/23 09:07:05;;;;;;;;;29.00;27.67;;;;;33.31;54.53;99469.53;6276147;20;3583628;-56
2023/06/23 09:09:36;;;;;;;;;28.43;28.00;;;;;33.45;53.10;99463.41;6304593;20;3587802;-58
2023/06/23 09:12:06;;;;;;;;;33.50;29.50;;;;;33.87;52.95;99457.50;6278562;20;3602438;-56
2023/06/23 09:14:37;;;;;;;;;31.00;30.00;;;;;33.77;52.73;99457.34;6305812;20;3591926;-59
2023/06/23 09:17:08;;;;;;;;;34.67;32.00;;;;;33.69;53.65;99454.97;6307643;20;3598286;-59
2023/06/23 09:19:42;;;;;;;;;36.25;32.00;;;;;34.05;54.28;99467.56;6274724;20;3590992;-60
2023/06/23 09:22:13;;;;;;;;;29.67;29.33;;;;;33.71;52.41;99468.66;6307933;20;3594071;-59
2023/06/23 09:24:46;;;;;;;;;32.50;30.75;;;;;33.97;53.75;99472.72;6278178;20;3594087;-59
2023/06/23 09:27:15;;;;;;;;;34.75;31.75;;;;;33.81;52.08;99464.09;6310248;20;4356476;-59
2023/06/23 09:30:00;;;;;;;;;32.14;30.43;;;;;33.70;52.19;99469.72;6326039;20;3598166;-59
2023/06/23 09:32:29;;;;;;;;;44.33;36.00;;;;;33.85;53.59;99470.00;6279516;20;3595092;-59
2023/06/23 09:34:58;;;;;;;;;39.00;33.67;;;;;34.09;51.14;99473.50;6277413;20;3594042;-59
2023/06/23 09:37:36;;;;;;;;;33.75;30.25;;;;;33.77;52.41;99468.47;6279320;20;3597637;-59
2023/06/23 09:40:06;;;;;;;;;40.00;34.50;;;;;33.82;52.52;99464.94;6305549;20;3593433;-58
2023/06/23 09:42:43;;;;;;;;;33.29;31.29;;;;;34.35;51.67;99471.13;6326880;20;3600255;-59
2023/06/23 09:45:18;;;;;;;;;37.00;32.25;;;;;34.05;53.60;99464.78;6278454;20;3599276;-59
2023/06/23 09:47:49;;;;;;;;;39.33;35.00;;;;;34.05;53.37;99469.50;6313290;20;3593434;-58
2023/06/23 09:50:22;;;;;;;;;36.50;33.25;;;;;34.36;50.73;99475.56;6283128;20;3598334;-60
2023/06/23 09:53:04;;;;;;;;;38.67;33.67;;;;;34.39;51.21;99484.28;6312725;20;3587776;-59
2023/06/23 09:55:33;;;;;;;;;39.00;34.00;;;;;34.63;49.48;99484.94;6312409;20;3600257;-60
2023/06/23 09:58:10;;;;;;;;;37.00;32.00;;;;;34.55;51.90;99474.22;6283834;20;3590259;-59
2023/06/23 10:00:38;;;;;;;;;44.67;38.67;;;;;34.35;51.31;99473.91;6283212;20;3582571;-59
2023/06/23 10:03:07;;;;;;;;;40.50;35.00;;;;;34.38;51.73;99481.75;6285357;20;3606604;-59
2023/06/23 10:05:38;;;;;;;;;42.67;37.67;;;;;34.30;52.21;99480.25;6313934;20;3569219;-60
2023/06/23 10:08:10;;;;;;;;;46.00;38.00;;;;;34.64;52.10;99489.41;6312041;20;3591953;-58
2023/06/23 10:10:42;;;;;;;;;45.33;39.00;;;;;34.21;52.77;99471.47;6312700;20;3585844;-59
2023/06/23 10:13:12;;;;;;;;;43.00;37.00;;;;;33.79;52.63;99477.44;6311390;20;3601343;-58
2023/06/23 10:15:42;;;;;;;;;43.67;37.67;;;;;34.24;52.68;99473.75;6312116;20;3605529;-59
2023/06/23 10:18:12;;;;;;;;;39.00;34.75;;;;;34.36;51.27;99479.19;6279383;20;3597274;-60
2023/06/23 10:20:41;;;;;;;;;44.33;38.00;;;;;34.23;53.38;99483.22;6310303;20;3587784;-60
2023/06/23 10:23:12;;;;;;;;;39.67;34.33;;;;;33.98;52.14;99469.66;6312341;20;3596726;-60
2023/06/23 10:25:43;;;;;;;;;40.50;35.00;;;;;34.24;51.25;99468.16;6280576;20;3603471;-59
2023/06/23 10:28:17;;;;;;;;;43.33;36.00;;;;;34.66;50.55;99464.06;6307881;20;3603410;-59
2023/06/23 10:30:47;;;;;;;;;39.75;34.25;;;;;34.48;50.49;99465.19;6281842;20;3602545;-58
2023/06/23 10:33:20;;;;;;;;;46.00;37.00;;;;;34.69;50.57;99458.81;6310171;20;2726363;-59
2023/06/23 10:35:52;;;;;;;;;44.00;37.33;;;;;35.05;50.55;99462.06;6284065;20;3582547;-60
2023/06/23 10:38:23;;;;;;;;;40.33;35.33;;;;;34.04;50.41;99457.50;6279032;20;3576425;-59
2023/06/23 10:40:59;;;;;;;;;45.75;37.75;;;;;34.85;51.94;99461.81;6280795;20;3588819;-58
2023/06/23 10:43:33;;;;;;;;;41.67;36.67;;;;;34.75;51.93;99452.19;6311761;20;3604443;-60
2023/06/23 10:46:03;;;;;;;;;44.33;38.00;;;;;34.59;51.21;99453.09;6279105;20;3589993;-60
2023/06/23 10:48:31;;;;;;;;;43.67;37.00;;;;;35.43;50.31;99451.06;6284335;20;3586115;-60
2023/06/23 10:51:02;;;;;;;;;48.50;39.25;;;;;35.04;49.35;99446.41;6284854;20;3602453;-59
2023/06/23 10:53:32;;;;;;;;;42.67;36.33;;;;;35.52;47.01;99446.66;6310428;20;3617027;-59
2023/06/23 10:56:02;;;;;;;;;45.33;37.00;;;;;34.49;50.70;99437.03;6281706;20;3575400;-59
2023/06/23 10:58:51;;;;;;;;;41.50;36.75;;;;;34.98;49.99;99439.09;6276180;20;3602365;-59
2023/06/23 11:01:20;;;;;;;;;45.00;37.67;;;;;35.21;50.29;99442.75;6310078;20;3590942;-60
2023/06/23 11:03:57;;;;;;;;;44.00;36.75;;;;;34.85;50.30;99439.47;6279503;20;3596224;-59
2023/06/23 11:06:35;;;;;;;;;48.00;40.00;;;;;35.01;49.06;99438.56;6310397;20;3600319;-59
2023/06/23 11:09:38;;;;;;;;;46.00;38.00;;;;;35.72;47.65;99437.66;6279931;20;3590899;-59
2023/06/23 11:12:36;;;;;;;;;48.67;40.00;;;;;35.26;49.25;99439.97;6312984;20;1899300;-59
2023/06/23 11:15:08;;;;;;;;;46.67;40.00;;;;;35.11;49.23;99446.25;6311989;20;3587816;-60
2023/06/23 11:17:41;;;;;;;;;50.33;40.00;;;;;35.17;48.35;99437.66;6307554;20;3593138;-59
2023/06/23 11:20:27;;;;;;;;;45.67;37.00;;;;;35.17;48.56;99437.66;6281290;20;3599279;-60
2023/06/23 11:23:00;;;;;;;;;46.00;38.67;;;;;34.07;52.20;99428.31;6278840;20;3588874;-59
2023/06/23 11:25:44;;;;;;;;;47.00;40.33;;;;;34.21;51.75;99423.25;6312193;20;3596631;-59
2023/06/23 11:28:38;;;;;;;;;47.33;39.67;;;;;35.34;49.08;99412.44;6306465;20;3585706;-59